sensor_id;sensor_type;location;lat;lon;timestamp;P1;durP1;ratioP1;P2;durP2;ratioP2
70183;SDS011;57554;51.546;6.776;2023-07-20T00:02:20;8.93;;;3.85;;
70183;SDS011;57554;51.546;6.776;2023-07-20T00:04:46;10.75;;;4.55;;
70183;SDS011;57554;51.546;6.776;2023-07-20T00:07:11;10.05;;;4.05;;
70183;SDS011;57554;51.546;6.776;2023-07-20T00:09:37;9.50;;;4.10;;
70183;SDS011;57554;51.546;6.776;2023-07-20T00:12:03;12.18;;;4.90;;
70183;SDS011;57554;51.546;6.776;2023-07-20T00:14:28;12.10;;;4.78;;
70183;SDS011;57554;51.546;6.776;2023-07-20T00:16:55;8.98;;;4.45;;
70183;SDS011;57554;51.546;6.776;2023-07-20T00:19:21;11.73;;;4.78;;
70183;SDS011;57554;51.546;6.776;2023-07-20T00:21:51;12.25;;;5.00;;
70183;SDS011;57554;51.546;6.776;2023-07-20T00:24:17;13.77;;;4.70;;
70183;SDS011;57554;51.546;6.776;2023-07-20T00:26:43;9.85;;;4.30;;
70183;SDS011;57554;51.546;6.776;2023-07-20T00:29:09;9.90;;;4.78;;
70183;SDS011;57554;51.546;6.776;2023-07-20T00:31:35;9.52;;;5.22;;
70183;SDS011;57554;51.546;6.776;2023-07-20T00:34:02;13.52;;;5.60;;
70183;SDS011;57554;51.546;6.776;2023-07-20T00:36:28;15.18;;;5.50;;
70183;SDS011;57554;51.546;6.776;2023-07-20T00:38:54;11.50;;;5.43;;
70183;SDS011;57554;51.546;6.776;2023-07-20T00:41:19;8.23;;;4.88;;
70183;SDS011;57554;51.546;6.776;2023-07-20T00:43:45;21.95;;;5.80;;
70183;SDS011;57554;51.546;6.776;2023-07-20T00:46:11;11.80;;;6.03;;
70183;SDS011;57554;51.546;6.776;2023-07-20T00:48:37;19.40;;;6.05;;
70183;SDS011;57554;51.546;6.776;2023-07-20T00:51:03;14.85;;;6.53;;
70183;SDS011;57554;51.546;6.776;2023-07-20T00:53:29;15.30;;;5.22;;
70183;SDS011;57554;51.546;6.776;2023-07-20T00:55:55;17.98;;;6.15;;
70183;SDS011;57554;51.546;6.776;2023-07-20T00:58:21;15.32;;;5.95;;
70183;SDS011;57554;51.546;6.776;2023-07-20T01:00:47;14.07;;;5.57;;
70183;SDS011;57554;51.546;6.776;2023-07-20T01:03:13;15.38;;;6.03;;
70183;SDS011;57554;51.546;6.776;2023-07-20T01:05:53;15.07;;;6.07;;
70183;SDS011;57554;51.546;6.776;2023-07-20T01:08:24;16.50;;;6.93;;
70183;SDS011;57554;51.546;6.776;2023-07-20T01:11:13;12.23;;;4.43;;
70183;SDS011;57554;51.546;6.776;2023-07-20T01:13:42;10.63;;;4.70;;
70183;SDS011;57554;51.546;6.776;2023-07-20T01:16:09;10.70;;;4.97;;
70183;SDS011;57554;51.546;6.776;2023-07-20T01:18:34;14.63;;;4.88;;
70183;SDS011;57554;51.546;6.776;2023-07-20T01:21:03;10.85;;;4.88;;
70183;SDS011;57554;51.546;6.776;2023-07-20T01:23:43;12.45;;;5.60;;
70183;SDS011;57554;51.546;6.776;2023-07-20T01:32:04;18.60;;;5.72;;
70183;SDS011;57554;51.546;6.776;2023-07-20T01:34:33;11.10;;;4.82;;
70183;SDS011;57554;51.546;6.776;2023-07-20T01:37:00;21.77;;;5.80;;
70183;SDS011;57554;51.546;6.776;2023-07-20T01:39:27;24.70;;;6.57;;
70183;SDS011;57554;51.546;6.776;2023-07-20T01:41:53;11.85;;;5.47;;
70183;SDS011;57554;51.546;6.776;2023-07-20T01:44:19;12.50;;;5.10;;
70183;SDS011;57554;51.546;6.776;2023-07-20T01:46:45;12.70;;;5.68;;
70183;SDS011;57554;51.546;6.776;2023-07-20T01:49:10;14.70;;;6.00;;
70183;SDS011;57554;51.546;6.776;2023-07-20T01:51:36;16.10;;;6.55;;
70183;SDS011;57554;51.546;6.776;2023-07-20T01:54:02;18.08;;;5.63;;
70183;SDS011;57554;51.546;6.776;2023-07-20T01:56:27;13.32;;;5.90;;
70183;SDS011;57554;51.546;6.776;2023-07-20T01:58:54;23.60;;;7.03;;
70183;SDS011;57554;51.546;6.776;2023-07-20T02:01:19;13.48;;;5.95;;
70183;SDS011;57554;51.546;6.776;2023-07-20T02:03:45;14.20;;;6.15;;
70183;SDS011;57554;51.546;6.776;2023-07-20T02:06:10;14.00;;;6.25;;
70183;SDS011;57554;51.546;6.776;2023-07-20T02:08:36;13.27;;;6.43;;
70183;SDS011;57554;51.546;6.776;2023-07-20T02:11:02;14.52;;;6.55;;
70183;SDS011;57554;51.546;6.776;2023-07-20T02:13:28;16.10;;;6.90;;
70183;SDS011;57554;51.546;6.776;2023-07-20T02:15:53;13.65;;;7.25;;
70183;SDS011;57554;51.546;6.776;2023-07-20T02:18:19;15.93;;;7.72;;
70183;SDS011;57554;51.546;6.776;2023-07-20T02:20:44;12.15;;;7.28;;
70183;SDS011;57554;51.546;6.776;2023-07-20T02:23:10;14.52;;;7.50;;
70183;SDS011;57554;51.546;6.776;2023-07-20T02:25:36;14.98;;;8.45;;
70183;SDS011;57554;51.546;6.776;2023-07-20T02:28:03;13.98;;;7.65;;
70183;SDS011;57554;51.546;6.776;2023-07-20T02:30:29;15.73;;;8.18;;
70183;SDS011;57554;51.546;6.776;2023-07-20T02:32:54;18.52;;;8.15;;
70183;SDS011;57554;51.546;6.776;2023-07-20T02:35:23;15.80;;;7.55;;
70183;SDS011;57554;51.546;6.776;2023-07-20T02:37:49;15.43;;;8.75;;
70183;SDS011;57554;51.546;6.776;2023-07-20T02:40:14;15.02;;;8.65;;
70183;SDS011;57554;51.546;6.776;2023-07-20T02:42:40;15.93;;;8.75;;
70183;SDS011;57554;51.546;6.776;2023-07-20T02:45:06;18.70;;;8.93;;
70183;SDS011;57554;51.546;6.776;2023-07-20T02:47:31;17.65;;;9.40;;
70183;SDS011;57554;51.546;6.776;2023-07-20T02:49:58;18.20;;;9.73;;
70183;SDS011;57554;51.546;6.776;2023-07-20T02:52:23;22.90;;;9.57;;
70183;SDS011;57554;51.546;6.776;2023-07-20T02:54:49;18.75;;;10.15;;
70183;SDS011;57554;51.546;6.776;2023-07-20T02:57:15;18.30;;;9.40;;
70183;SDS011;57554;51.546;6.776;2023-07-20T02:59:40;18.17;;;9.10;;
70183;SDS011;57554;51.546;6.776;2023-07-20T03:02:06;16.65;;;9.23;;
70183;SDS011;57554;51.546;6.776;2023-07-20T03:04:34;19.40;;;9.32;;
70183;SDS011;57554;51.546;6.776;2023-07-20T03:07:02;18.42;;;10.07;;
70183;SDS011;57554;51.546;6.776;2023-07-20T03:09:29;18.90;;;9.52;;
70183;SDS011;57554;51.546;6.776;2023-07-20T03:11:54;22.67;;;11.18;;
70183;SDS011;57554;51.546;6.776;2023-07-20T03:14:20;19.67;;;10.57;;
70183;SDS011;57554;51.546;6.776;2023-07-20T03:16:45;18.85;;;10.88;;
70183;SDS011;57554;51.546;6.776;2023-07-20T03:19:11;20.45;;;11.20;;
70183;SDS011;57554;51.546;6.776;2023-07-20T03:21:36;22.10;;;11.15;;
70183;SDS011;57554;51.546;6.776;2023-07-20T03:24:06;21.35;;;11.35;;
70183;SDS011;57554;51.546;6.776;2023-07-20T03:26:32;19.67;;;10.95;;
70183;SDS011;57554;51.546;6.776;2023-07-20T03:28:58;19.95;;;10.88;;
70183;SDS011;57554;51.546;6.776;2023-07-20T03:31:23;24.05;;;11.52;;
70183;SDS011;57554;51.546;6.776;2023-07-20T03:33:49;22.35;;;11.82;;
70183;SDS011;57554;51.546;6.776;2023-07-20T03:36:14;22.40;;;11.70;;
70183;SDS011;57554;51.546;6.776;2023-07-20T03:38:40;17.58;;;10.55;;
70183;SDS011;57554;51.546;6.776;2023-07-20T03:41:06;24.05;;;11.10;;
70183;SDS011;57554;51.546;6.776;2023-07-20T03:43:31;19.52;;;12.10;;
70183;SDS011;57554;51.546;6.776;2023-07-20T03:45:57;20.30;;;11.10;;
70183;SDS011;57554;51.546;6.776;2023-07-20T03:48:23;21.45;;;12.02;;
70183;SDS011;57554;51.546;6.776;2023-07-20T03:50:50;22.05;;;12.70;;
70183;SDS011;57554;51.546;6.776;2023-07-20T03:53:16;20.40;;;11.13;;
70183;SDS011;57554;51.546;6.776;2023-07-20T03:55:46;19.90;;;10.25;;
70183;SDS011;57554;51.546;6.776;2023-07-20T03:58:12;20.08;;;11.63;;
70183;SDS011;57554;51.546;6.776;2023-07-20T04:00:38;20.05;;;11.32;;
70183;SDS011;57554;51.546;6.776;2023-07-20T04:03:04;19.50;;;11.95;;
70183;SDS011;57554;51.546;6.776;2023-07-20T04:05:30;20.00;;;10.75;;
70183;SDS011;57554;51.546;6.776;2023-07-20T04:07:56;20.85;;;12.52;;
70183;SDS011;57554;51.546;6.776;2023-07-20T04:10:21;18.58;;;10.43;;
70183;SDS011;57554;51.546;6.776;2023-07-20T04:12:47;23.27;;;13.10;;
70183;SDS011;57554;51.546;6.776;2023-07-20T04:15:13;19.83;;;11.95;;
70183;SDS011;57554;51.546;6.776;2023-07-20T04:17:39;20.35;;;11.75;;
70183;SDS011;57554;51.546;6.776;2023-07-20T04:20:08;17.05;;;10.32;;
70183;SDS011;57554;51.546;6.776;2023-07-20T04:22:34;18.83;;;12.02;;
70183;SDS011;57554;51.546;6.776;2023-07-20T04:25:00;18.98;;;11.55;;
70183;SDS011;57554;51.546;6.776;2023-07-20T04:27:26;18.85;;;10.38;;
70183;SDS011;57554;51.546;6.776;2023-07-20T04:29:51;18.55;;;10.52;;
70183;SDS011;57554;51.546;6.776;2023-07-20T04:32:17;15.70;;;9.80;;
70183;SDS011;57554;51.546;6.776;2023-07-20T04:34:42;16.27;;;10.20;;
70183;SDS011;57554;51.546;6.776;2023-07-20T04:37:08;15.88;;;9.90;;
70183;SDS011;57554;51.546;6.776;2023-07-20T04:39:34;16.05;;;8.95;;
70183;SDS011;57554;51.546;6.776;2023-07-20T04:41:59;13.70;;;8.48;;
70183;SDS011;57554;51.546;6.776;2023-07-20T04:44:25;12.68;;;7.80;;
70183;SDS011;57554;51.546;6.776;2023-07-20T04:46:51;14.60;;;8.60;;
70183;SDS011;57554;51.546;6.776;2023-07-20T04:49:16;13.80;;;7.80;;
70183;SDS011;57554;51.546;6.776;2023-07-20T04:51:42;13.32;;;7.60;;
70183;SDS011;57554;51.546;6.776;2023-07-20T04:54:07;12.60;;;8.27;;
70183;SDS011;57554;51.546;6.776;2023-07-20T04:56:33;12.43;;;7.63;;
70183;SDS011;57554;51.546;6.776;2023-07-20T04:58:59;12.63;;;8.07;;
70183;SDS011;57554;51.546;6.776;2023-07-20T05:01:24;13.45;;;8.40;;
70183;SDS011;57554;51.546;6.776;2023-07-20T05:03:51;13.43;;;7.97;;
70183;SDS011;57554;51.546;6.776;2023-07-20T05:06:17;11.95;;;7.80;;
70183;SDS011;57554;51.546;6.776;2023-07-20T05:08:43;12.48;;;7.15;;
70183;SDS011;57554;51.546;6.776;2023-07-20T05:11:09;13.80;;;8.00;;
70183;SDS011;57554;51.546;6.776;2023-07-20T05:13:35;13.70;;;7.00;;
70183;SDS011;57554;51.546;6.776;2023-07-20T05:16:01;9.85;;;6.55;;
70183;SDS011;57554;51.546;6.776;2023-07-20T05:18:27;10.18;;;5.93;;
70183;SDS011;57554;51.546;6.776;2023-07-20T05:20:52;10.05;;;6.05;;
70183;SDS011;57554;51.546;6.776;2023-07-20T05:23:21;13.73;;;6.35;;
70183;SDS011;57554;51.546;6.776;2023-07-20T05:25:47;10.02;;;6.38;;
70183;SDS011;57554;51.546;6.776;2023-07-20T05:28:20;9.18;;;6.03;;
70183;SDS011;57554;51.546;6.776;2023-07-20T05:30:45;11.40;;;6.55;;
70183;SDS011;57554;51.546;6.776;2023-07-20T05:33:11;9.55;;;5.97;;
70183;SDS011;57554;51.546;6.776;2023-07-20T05:35:36;10.85;;;6.10;;
70183;SDS011;57554;51.546;6.776;2023-07-20T05:38:02;9.90;;;6.18;;
70183;SDS011;57554;51.546;6.776;2023-07-20T05:40:30;9.77;;;6.10;;
70183;SDS011;57554;51.546;6.776;2023-07-20T05:42:55;10.68;;;6.75;;
70183;SDS011;57554;51.546;6.776;2023-07-20T05:45:22;11.48;;;5.25;;
70183;SDS011;57554;51.546;6.776;2023-07-20T05:47:47;9.82;;;5.63;;
70183;SDS011;57554;51.546;6.776;2023-07-20T05:50:13;11.48;;;5.50;;
70183;SDS011;57554;51.546;6.776;2023-07-20T05:52:39;8.07;;;4.80;;
70183;SDS011;57554;51.546;6.776;2023-07-20T05:55:05;7.18;;;3.90;;
70183;SDS011;57554;51.546;6.776;2023-07-20T05:57:31;7.55;;;4.07;;
70183;SDS011;57554;51.546;6.776;2023-07-20T05:59:57;7.03;;;3.70;;
70183;SDS011;57554;51.546;6.776;2023-07-20T06:02:23;8.38;;;4.20;;
70183;SDS011;57554;51.546;6.776;2023-07-20T06:04:48;6.95;;;3.90;;
70183;SDS011;57554;51.546;6.776;2023-07-20T06:07:14;8.35;;;4.32;;
70183;SDS011;57554;51.546;6.776;2023-07-20T06:09:40;7.57;;;4.50;;
70183;SDS011;57554;51.546;6.776;2023-07-20T06:12:06;9.95;;;4.07;;
70183;SDS011;57554;51.546;6.776;2023-07-20T06:14:32;8.07;;;4.25;;
70183;SDS011;57554;51.546;6.776;2023-07-20T06:16:58;7.75;;;4.20;;
70183;SDS011;57554;51.546;6.776;2023-07-20T06:19:24;8.23;;;4.00;;
70183;SDS011;57554;51.546;6.776;2023-07-20T06:21:49;7.45;;;3.95;;
70183;SDS011;57554;51.546;6.776;2023-07-20T06:24:15;9.32;;;3.53;;
70183;SDS011;57554;51.546;6.776;2023-07-20T06:26:41;7.28;;;3.60;;
70183;SDS011;57554;51.546;6.776;2023-07-20T06:29:07;6.88;;;3.88;;
70183;SDS011;57554;51.546;6.776;2023-07-20T06:31:36;7.85;;;3.10;;
70183;SDS011;57554;51.546;6.776;2023-07-20T06:34:02;7.72;;;3.55;;
70183;SDS011;57554;51.546;6.776;2023-07-20T06:36:27;6.25;;;3.03;;
70183;SDS011;57554;51.546;6.776;2023-07-20T06:38:53;6.43;;;3.13;;
70183;SDS011;57554;51.546;6.776;2023-07-20T06:41:19;6.22;;;3.10;;
70183;SDS011;57554;51.546;6.776;2023-07-20T06:43:45;5.75;;;2.78;;
70183;SDS011;57554;51.546;6.776;2023-07-20T06:46:11;5.28;;;2.70;;
70183;SDS011;57554;51.546;6.776;2023-07-20T06:48:36;7.07;;;2.83;;
70183;SDS011;57554;51.546;6.776;2023-07-20T06:51:02;5.60;;;2.58;;
70183;SDS011;57554;51.546;6.776;2023-07-20T06:53:28;5.25;;;2.35;;
70183;SDS011;57554;51.546;6.776;2023-07-20T06:55:54;5.38;;;2.60;;
70183;SDS011;57554;51.546;6.776;2023-07-20T06:58:22;6.95;;;2.75;;
70183;SDS011;57554;51.546;6.776;2023-07-20T07:00:51;5.10;;;2.28;;
70183;SDS011;57554;51.546;6.776;2023-07-20T07:03:17;5.93;;;2.55;;
70183;SDS011;57554;51.546;6.776;2023-07-20T07:05:43;5.60;;;2.38;;
70183;SDS011;57554;51.546;6.776;2023-07-20T07:08:10;5.55;;;2.50;;
70183;SDS011;57554;51.546;6.776;2023-07-20T07:10:36;6.55;;;2.75;;
70183;SDS011;57554;51.546;6.776;2023-07-20T07:13:02;5.18;;;2.10;;
70183;SDS011;57554;51.546;6.776;2023-07-20T07:15:28;4.50;;;2.60;;
70183;SDS011;57554;51.546;6.776;2023-07-20T07:17:53;5.22;;;2.45;;
70183;SDS011;57554;51.546;6.776;2023-07-20T07:20:19;4.38;;;2.20;;
70183;SDS011;57554;51.546;6.776;2023-07-20T07:22:45;5.38;;;2.17;;
70183;SDS011;57554;51.546;6.776;2023-07-20T07:25:11;6.18;;;2.33;;
70183;SDS011;57554;51.546;6.776;2023-07-20T07:27:37;5.85;;;2.47;;
70183;SDS011;57554;51.546;6.776;2023-07-20T07:30:03;6.53;;;2.75;;
70183;SDS011;57554;51.546;6.776;2023-07-20T07:32:30;6.15;;;2.38;;
70183;SDS011;57554;51.546;6.776;2023-07-20T07:34:56;6.57;;;2.30;;
70183;SDS011;57554;51.546;6.776;2023-07-20T07:37:23;4.03;;;1.50;;
70183;SDS011;57554;51.546;6.776;2023-07-20T07:39:49;4.55;;;1.20;;
70183;SDS011;57554;51.546;6.776;2023-07-20T07:42:15;3.65;;;1.20;;
70183;SDS011;57554;51.546;6.776;2023-07-20T07:44:40;3.20;;;1.10;;
70183;SDS011;57554;51.546;6.776;2023-07-20T07:47:06;4.75;;;1.25;;
70183;SDS011;57554;51.546;6.776;2023-07-20T07:49:32;4.20;;;1.33;;
70183;SDS011;57554;51.546;6.776;2023-07-20T07:51:57;5.68;;;1.50;;
70183;SDS011;57554;51.546;6.776;2023-07-20T07:54:23;3.70;;;1.20;;
70183;SDS011;57554;51.546;6.776;2023-07-20T07:56:48;4.60;;;1.25;;
70183;SDS011;57554;51.546;6.776;2023-07-20T07:59:16;3.50;;;1.30;;
70183;SDS011;57554;51.546;6.776;2023-07-20T08:01:41;3.58;;;1.30;;
70183;SDS011;57554;51.546;6.776;2023-07-20T08:04:07;3.63;;;1.20;;
70183;SDS011;57554;51.546;6.776;2023-07-20T08:06:33;3.30;;;1.05;;
70183;SDS011;57554;51.546;6.776;2023-07-20T08:08:59;3.75;;;1.30;;
70183;SDS011;57554;51.546;6.776;2023-07-20T08:11:24;3.60;;;1.48;;
70183;SDS011;57554;51.546;6.776;2023-07-20T08:13:50;3.30;;;1.20;;
70183;SDS011;57554;51.546;6.776;2023-07-20T08:16:15;3.83;;;0.98;;
70183;SDS011;57554;51.546;6.776;2023-07-20T08:18:41;4.55;;;1.05;;
70183;SDS011;57554;51.546;6.776;2023-07-20T08:21:08;4.45;;;1.20;;
70183;SDS011;57554;51.546;6.776;2023-07-20T08:23:34;4.40;;;1.33;;
70183;SDS011;57554;51.546;6.776;2023-07-20T08:25:59;3.78;;;1.23;;
70183;SDS011;57554;51.546;6.776;2023-07-20T08:28:26;3.72;;;1.17;;
70183;SDS011;57554;51.546;6.776;2023-07-20T08:30:52;3.90;;;1.45;;
70183;SDS011;57554;51.546;6.776;2023-07-20T08:33:18;3.30;;;1.15;;
70183;SDS011;57554;51.546;6.776;2023-07-20T08:35:44;3.30;;;1.10;;
70183;SDS011;57554;51.546;6.776;2023-07-20T08:38:10;3.20;;;0.93;;
70183;SDS011;57554;51.546;6.776;2023-07-20T08:40:43;4.03;;;1.35;;
70183;SDS011;57554;51.546;6.776;2023-07-20T08:43:10;4.03;;;0.93;;
70183;SDS011;57554;51.546;6.776;2023-07-20T08:45:38;3.22;;;1.08;;
70183;SDS011;57554;51.546;6.776;2023-07-20T08:48:05;5.18;;;1.10;;
70183;SDS011;57554;51.546;6.776;2023-07-20T08:50:32;3.65;;;0.85;;
70183;SDS011;57554;51.546;6.776;2023-07-20T08:52:59;4.18;;;0.90;;
70183;SDS011;57554;51.546;6.776;2023-07-20T08:55:26;3.75;;;0.80;;
70183;SDS011;57554;51.546;6.776;2023-07-20T08:57:55;3.53;;;0.93;;
70183;SDS011;57554;51.546;6.776;2023-07-20T09:00:22;4.80;;;0.80;;
70183;SDS011;57554;51.546;6.776;2023-07-20T09:02:50;3.70;;;0.77;;
70183;SDS011;57554;51.546;6.776;2023-07-20T09:05:18;4.35;;;0.77;;
70183;SDS011;57554;51.546;6.776;2023-07-20T09:07:44;3.13;;;0.60;;
70183;SDS011;57554;51.546;6.776;2023-07-20T09:10:10;2.95;;;0.88;;
70183;SDS011;57554;51.546;6.776;2023-07-20T09:12:37;3.55;;;0.70;;
70183;SDS011;57554;51.546;6.776;2023-07-20T09:15:04;3.08;;;0.70;;
70183;SDS011;57554;51.546;6.776;2023-07-20T09:17:30;3.65;;;0.82;;
70183;SDS011;57554;51.546;6.776;2023-07-20T09:19:56;3.97;;;0.85;;
70183;SDS011;57554;51.546;6.776;2023-07-20T09:22:23;2.70;;;0.77;;
70183;SDS011;57554;51.546;6.776;2023-07-20T09:24:55;2.92;;;0.80;;
70183;SDS011;57554;51.546;6.776;2023-07-20T09:27:21;3.03;;;0.73;;
70183;SDS011;57554;51.546;6.776;2023-07-20T09:29:47;3.45;;;0.70;;
70183;SDS011;57554;51.546;6.776;2023-07-20T09:32:20;4.13;;;0.90;;
70183;SDS011;57554;51.546;6.776;2023-07-20T09:34:46;3.65;;;0.85;;
70183;SDS011;57554;51.546;6.776;2023-07-20T09:37:12;3.30;;;0.82;;
70183;SDS011;57554;51.546;6.776;2023-07-20T09:39:44;3.28;;;1.00;;
70183;SDS011;57554;51.546;6.776;2023-07-20T09:42:11;3.80;;;0.80;;
70183;SDS011;57554;51.546;6.776;2023-07-20T09:44:40;3.33;;;0.95;;
70183;SDS011;57554;51.546;6.776;2023-07-20T09:47:08;2.50;;;0.75;;
70183;SDS011;57554;51.546;6.776;2023-07-20T09:49:40;3.03;;;0.70;;
70183;SDS011;57554;51.546;6.776;2023-07-20T09:52:07;5.38;;;1.00;;
70183;SDS011;57554;51.546;6.776;2023-07-20T09:54:33;6.05;;;1.05;;
70183;SDS011;57554;51.546;6.776;2023-07-20T09:57:00;4.28;;;1.10;;
70183;SDS011;57554;51.546;6.776;2023-07-20T09:59:27;3.20;;;0.80;;
70183;SDS011;57554;51.546;6.776;2023-07-20T10:01:53;5.65;;;0.77;;
70183;SDS011;57554;51.546;6.776;2023-07-20T10:06:50;3.15;;;0.70;;
70183;SDS011;57554;51.546;6.776;2023-07-20T10:09:20;3.30;;;0.85;;
70183;SDS011;57554;51.546;6.776;2023-07-20T10:11:52;2.85;;;0.73;;
70183;SDS011;57554;51.546;6.776;2023-07-20T10:14:21;1.90;;;0.60;;
70183;SDS011;57554;51.546;6.776;2023-07-20T10:16:51;2.83;;;0.85;;
70183;SDS011;57554;51.546;6.776;2023-07-20T10:19:23;3.78;;;0.90;;
70183;SDS011;57554;51.546;6.776;2023-07-20T10:21:57;2.53;;;0.65;;
70183;SDS011;57554;51.546;6.776;2023-07-20T10:24:31;4.22;;;0.73;;
70183;SDS011;57554;51.546;6.776;2023-07-20T10:26:57;2.35;;;0.60;;
70183;SDS011;57554;51.546;6.776;2023-07-20T10:29:23;2.80;;;0.70;;
70183;SDS011;57554;51.546;6.776;2023-07-20T10:31:50;1.67;;;0.47;;
70183;SDS011;57554;51.546;6.776;2023-07-20T10:34:16;2.20;;;0.63;;
70183;SDS011;57554;51.546;6.776;2023-07-20T10:36:45;2.72;;;0.70;;
70183;SDS011;57554;51.546;6.776;2023-07-20T10:39:24;3.10;;;0.60;;
70183;SDS011;57554;51.546;6.776;2023-07-20T10:42:01;3.30;;;0.65;;
70183;SDS011;57554;51.546;6.776;2023-07-20T10:44:36;1.58;;;0.43;;
70183;SDS011;57554;51.546;6.776;2023-07-20T10:47:03;2.60;;;0.70;;
70183;SDS011;57554;51.546;6.776;2023-07-20T10:49:33;2.75;;;0.60;;
70183;SDS011;57554;51.546;6.776;2023-07-20T10:52:03;3.40;;;0.85;;
70183;SDS011;57554;51.546;6.776;2023-07-20T10:56:56;3.42;;;0.60;;
70183;SDS011;57554;51.546;6.776;2023-07-20T10:59:41;2.45;;;0.60;;
70183;SDS011;57554;51.546;6.776;2023-07-20T11:02:07;3.28;;;0.70;;
70183;SDS011;57554;51.546;6.776;2023-07-20T11:04:43;2.22;;;0.55;;
70183;SDS011;57554;51.546;6.776;2023-07-20T11:07:10;3.35;;;0.55;;
70183;SDS011;57554;51.546;6.776;2023-07-20T11:09:39;2.10;;;0.50;;
70183;SDS011;57554;51.546;6.776;2023-07-20T11:12:09;3.67;;;0.70;;
70183;SDS011;57554;51.546;6.776;2023-07-20T11:14:40;4.03;;;0.90;;
70183;SDS011;57554;51.546;6.776;2023-07-20T11:17:13;3.40;;;0.80;;
70183;SDS011;57554;51.546;6.776;2023-07-20T11:19:40;2.45;;;0.50;;
70183;SDS011;57554;51.546;6.776;2023-07-20T11:22:06;3.28;;;0.82;;
70183;SDS011;57554;51.546;6.776;2023-07-20T11:24:32;3.25;;;0.80;;
70183;SDS011;57554;51.546;6.776;2023-07-20T11:26:58;3.33;;;0.80;;
70183;SDS011;57554;51.546;6.776;2023-07-20T11:29:26;2.38;;;0.52;;
70183;SDS011;57554;51.546;6.776;2023-07-20T11:31:51;2.58;;;0.70;;
70183;SDS011;57554;51.546;6.776;2023-07-20T11:34:18;2.35;;;0.70;;
70183;SDS011;57554;51.546;6.776;2023-07-20T11:36:46;2.35;;;0.60;;
70183;SDS011;57554;51.546;6.776;2023-07-20T11:39:19;3.70;;;1.00;;
70183;SDS011;57554;51.546;6.776;2023-07-20T11:41:47;1.98;;;0.52;;
70183;SDS011;57554;51.546;6.776;2023-07-20T11:44:13;2.50;;;0.70;;
70183;SDS011;57554;51.546;6.776;2023-07-20T11:46:40;2.22;;;0.60;;
70183;SDS011;57554;51.546;6.776;2023-07-20T11:49:10;3.47;;;0.80;;
70183;SDS011;57554;51.546;6.776;2023-07-20T11:51:36;4.47;;;0.68;;
70183;SDS011;57554;51.546;6.776;2023-07-20T11:54:03;3.25;;;0.80;;
70183;SDS011;57554;51.546;6.776;2023-07-20T11:56:30;2.97;;;0.70;;
70183;SDS011;57554;51.546;6.776;2023-07-20T11:58:56;3.50;;;0.73;;
70183;SDS011;57554;51.546;6.776;2023-07-20T12:01:25;2.92;;;0.90;;
70183;SDS011;57554;51.546;6.776;2023-07-20T12:03:54;3.05;;;0.70;;
70183;SDS011;57554;51.546;6.776;2023-07-20T12:06:24;2.75;;;0.70;;
70183;SDS011;57554;51.546;6.776;2023-07-20T12:14:18;2.42;;;0.70;;
70183;SDS011;57554;51.546;6.776;2023-07-20T12:16:44;2.03;;;0.63;;
70183;SDS011;57554;51.546;6.776;2023-07-20T12:19:19;2.55;;;0.70;;
70183;SDS011;57554;51.546;6.776;2023-07-20T12:21:45;3.00;;;0.60;;
70183;SDS011;57554;51.546;6.776;2023-07-20T12:24:10;2.80;;;0.75;;
70183;SDS011;57554;51.546;6.776;2023-07-20T12:26:38;3.55;;;0.82;;
70183;SDS011;57554;51.546;6.776;2023-07-20T12:29:04;2.30;;;0.60;;
70183;SDS011;57554;51.546;6.776;2023-07-20T12:31:30;3.88;;;0.60;;
70183;SDS011;57554;51.546;6.776;2023-07-20T12:33:59;2.70;;;0.65;;
70183;SDS011;57554;51.546;6.776;2023-07-20T12:36:24;2.92;;;0.70;;
70183;SDS011;57554;51.546;6.776;2023-07-20T12:38:50;2.85;;;0.70;;
70183;SDS011;57554;51.546;6.776;2023-07-20T12:41:16;2.67;;;0.73;;
70183;SDS011;57554;51.546;6.776;2023-07-20T12:43:42;3.50;;;0.77;;
70183;SDS011;57554;51.546;6.776;2023-07-20T12:46:09;2.80;;;0.65;;
70183;SDS011;57554;51.546;6.776;2023-07-20T12:48:36;2.53;;;0.60;;
70183;SDS011;57554;51.546;6.776;2023-07-20T12:51:03;3.97;;;0.73;;
70183;SDS011;57554;51.546;6.776;2023-07-20T12:53:29;4.22;;;0.60;;
70183;SDS011;57554;51.546;6.776;2023-07-20T12:55:56;2.90;;;0.80;;
70183;SDS011;57554;51.546;6.776;2023-07-20T12:58:21;1.77;;;0.60;;
70183;SDS011;57554;51.546;6.776;2023-07-20T13:00:47;3.22;;;0.65;;
70183;SDS011;57554;51.546;6.776;2023-07-20T13:03:12;3.10;;;0.60;;
70183;SDS011;57554;51.546;6.776;2023-07-20T13:05:38;3.60;;;0.80;;
70183;SDS011;57554;51.546;6.776;2023-07-20T13:08:04;2.28;;;0.50;;
70183;SDS011;57554;51.546;6.776;2023-07-20T13:10:30;2.83;;;0.60;;
70183;SDS011;57554;51.546;6.776;2023-07-20T13:12:56;2.58;;;0.63;;
70183;SDS011;57554;51.546;6.776;2023-07-20T13:15:23;5.35;;;0.80;;
70183;SDS011;57554;51.546;6.776;2023-07-20T13:17:54;3.88;;;0.70;;
70183;SDS011;57554;51.546;6.776;2023-07-20T13:20:19;2.63;;;0.68;;
70183;SDS011;57554;51.546;6.776;2023-07-20T13:22:45;3.30;;;0.77;;
70183;SDS011;57554;51.546;6.776;2023-07-20T13:25:10;3.65;;;0.77;;
70183;SDS011;57554;51.546;6.776;2023-07-20T13:27:36;2.67;;;0.80;;
70183;SDS011;57554;51.546;6.776;2023-07-20T13:30:02;3.08;;;0.77;;
70183;SDS011;57554;51.546;6.776;2023-07-20T13:32:31;2.70;;;0.70;;
70183;SDS011;57554;51.546;6.776;2023-07-20T13:34:57;2.33;;;0.63;;
70183;SDS011;57554;51.546;6.776;2023-07-20T13:37:23;2.38;;;0.60;;
70183;SDS011;57554;51.546;6.776;2023-07-20T13:39:48;3.92;;;0.90;;
70183;SDS011;57554;51.546;6.776;2023-07-20T13:42:14;2.42;;;0.70;;
70183;SDS011;57554;51.546;6.776;2023-07-20T13:44:40;2.15;;;0.57;;
70183;SDS011;57554;51.546;6.776;2023-07-20T13:47:06;3.15;;;0.63;;
70183;SDS011;57554;51.546;6.776;2023-07-20T13:49:31;2.25;;;0.68;;
70183;SDS011;57554;51.546;6.776;2023-07-20T13:51:57;2.97;;;0.77;;
70183;SDS011;57554;51.546;6.776;2023-07-20T13:54:23;2.97;;;1.00;;
70183;SDS011;57554;51.546;6.776;2023-07-20T13:56:49;3.83;;;0.82;;
70183;SDS011;57554;51.546;6.776;2023-07-20T13:59:15;2.75;;;0.70;;
70183;SDS011;57554;51.546;6.776;2023-07-20T14:01:41;5.03;;;0.93;;
70183;SDS011;57554;51.546;6.776;2023-07-20T14:04:06;5.07;;;0.60;;
70183;SDS011;57554;51.546;6.776;2023-07-20T14:06:34;3.10;;;0.90;;
70183;SDS011;57554;51.546;6.776;2023-07-20T14:09:00;4.05;;;0.95;;
70183;SDS011;57554;51.546;6.776;2023-07-20T14:11:26;4.35;;;0.90;;
70183;SDS011;57554;51.546;6.776;2023-07-20T14:13:52;3.05;;;0.80;;
70183;SDS011;57554;51.546;6.776;2023-07-20T14:16:23;3.03;;;0.60;;
70183;SDS011;57554;51.546;6.776;2023-07-20T14:18:49;2.97;;;0.80;;
70183;SDS011;57554;51.546;6.776;2023-07-20T14:21:16;3.35;;;0.80;;
70183;SDS011;57554;51.546;6.776;2023-07-20T14:23:44;2.88;;;0.77;;
70183;SDS011;57554;51.546;6.776;2023-07-20T14:26:14;3.72;;;0.70;;
70183;SDS011;57554;51.546;6.776;2023-07-20T14:28:40;2.58;;;0.70;;
70183;SDS011;57554;51.546;6.776;2023-07-20T14:31:06;2.75;;;0.70;;
70183;SDS011;57554;51.546;6.776;2023-07-20T14:33:32;3.83;;;0.80;;
70183;SDS011;57554;51.546;6.776;2023-07-20T14:35:58;2.72;;;0.90;;
70183;SDS011;57554;51.546;6.776;2023-07-20T14:38:23;3.17;;;0.80;;
70183;SDS011;57554;51.546;6.776;2023-07-20T14:40:49;2.75;;;0.73;;
70183;SDS011;57554;51.546;6.776;2023-07-20T14:43:15;3.00;;;0.80;;
70183;SDS011;57554;51.546;6.776;2023-07-20T14:45:41;2.60;;;0.75;;
70183;SDS011;57554;51.546;6.776;2023-07-20T14:48:07;2.80;;;0.80;;
70183;SDS011;57554;51.546;6.776;2023-07-20T14:50:32;3.78;;;1.05;;
70183;SDS011;57554;51.546;6.776;2023-07-20T14:52:59;4.50;;;1.10;;
70183;SDS011;57554;51.546;6.776;2023-07-20T14:55:25;3.40;;;0.75;;